Time,TemperatureF,DewpointF,PressureIn,WindDirection,WindDirectionDegrees,WindSpeedMPH,WindSpeedGustMPH,Humidity,HourlyPrecipIn,Conditions,Clouds,dailyrainin,SoftwareType,DateUTC
2013-03-20 00:09:00,52.3,51.8,30.03,NE,45,6.7,-999.0,98,-99.99,,,0.00,Acu-Link.com,2013-03-20 05:09:00,
2013-03-20 00:24:00,52.2,51.6,30.03,NE,45,4.7,-999.0,98,-99.99,,,0.00,Acu-Link.com,2013-03-20 05:24:00,
2013-03-20 00:39:00,52.2,51.6,30.04,NNE,22,4.3,-999.0,98,-99.99,,,0.00,Acu-Link.com,2013-03-20 05:39:00,
2013-03-20 00:54:00,52.0,51.4,30.02,NE,45,4.7,-999.0,98,-99.99,,,0.00,Acu-Link.com,2013-03-20 05:54:00,
2013-03-20 01:09:00,52.0,51.4,30.02,NNE,22,2.7,-999.0,98,-99.99,,,0.00,Acu-Link.com,2013-03-20 06:09:00,
2013-03-20 01:25:00,51.3,50.7,30.03,NNE,22,2.7,-999.0,98,-99.99,,,0.00,Acu-Link.com,2013-03-20 06:25:00,
2013-03-20 01:40:00,50.5,50.0,30.06,West,270,0.0,-999.0,98,-99.99,,,0.00,Acu-Link.com,2013-03-20 06:40:00,
2013-03-20 01:55:00,50.0,49.5,30.06,NNW,337,2.2,-999.0,98,-99.99,,,0.00,Acu-Link.com,2013-03-20 06:55:00,
2013-03-20 02:10:00,49.8,49.3,30.06,NW,315,2.7,-999.0,98,-99.99,,,0.00,Acu-Link.com,2013-03-20 07:10:00,
2013-03-20 02:25:00,50.0,49.5,30.08,NNW,337,2.7,-999.0,98,-99.99,,,0.00,Acu-Link.com,2013-03-20 07:25:00,
2013-03-20 02:41:00,50.5,49.4,30.08,NNW,337,7.4,-999.0,96,-99.99,,,0.00,Acu-Link.com,2013-03-20 07:41:00,
2013-03-20 02:56:00,49.6,49.1,30.08,South,180,2.2,-999.0,98,-99.99,,,0.00,Acu-Link.com,2013-03-20 07:56:00,
2013-03-20 03:18:00,49.8,48.7,30.08,NNW,337,5.1,-999.0,96,-99.99,,,0.00,Acu-Link.com,2013-03-20 08:18:00,
2013-03-20 03:36:00,49.8,48.4,30.08,NE,45,4.3,-999.0,95,-99.99,,,0.00,Acu-Link.com,2013-03-20 08:36:00,
2013-03-20 04:21:00,48.4,43.1,30.07,NE,45,2.2,-999.0,82,-99.99,,,0.00,Acu-Link.com,2013-03-20 09:21:00,
2013-03-20 04:36:00,47.3,43.9,30.06,NNW,337,0.0,-999.0,88,-99.99,,,0.00,Acu-Link.com,2013-03-20 09:36:00,
2013-03-20 04:52:00,46.8,43.7,30.07,NE,45,2.2,-999.0,89,-99.99,,,0.00,Acu-Link.com,2013-03-20 09:52:00,
2013-03-20 05:07:00,46.2,43.7,30.07,North,0,1.6,-999.0,91,-99.99,,,0.00,Acu-Link.com,2013-03-20 10:07:00,
2013-03-20 05:22:00,46.2,43.2,30.08,NE,45,1.6,-999.0,89,-99.99,,,0.00,Acu-Link.com,2013-03-20 10:22:00,
2013-03-20 05:37:00,45.9,42.5,30.10,NNW,337,1.1,-999.0,88,-99.99,,,0.00,Acu-Link.com,2013-03-20 10:37:00,
2013-03-20 05:53:00,44.8,42.3,30.10,West,270,0.0,-999.0,91,-99.99,,,0.00,Acu-Link.com,2013-03-20 10:53:00,
2013-03-20 06:08:00,43.7,43.2,30.11,NE,45,0.0,-999.0,98,-99.99,,,0.00,Acu-Link.com,2013-03-20 11:08:00,
2013-03-20 06:23:00,42.6,42.1,30.13,NE,45,0.0,-999.0,98,-99.99,,,0.00,Acu-Link.com,2013-03-20 11:23:00,
2013-03-20 06:38:00,42.6,42.1,30.14,NE,45,1.1,-999.0,98,-99.99,,,0.00,Acu-Link.com,2013-03-20 11:38:00,
2013-03-20 06:53:00,42.6,42.1,30.14,NE,45,0.0,-999.0,98,-99.99,,,0.00,Acu-Link.com,2013-03-20 11:53:00,
2013-03-20 07:09:00,41.9,41.4,30.15,North,0,0.0,-999.0,98,-99.99,,,0.00,Acu-Link.com,2013-03-20 12:09:00,
2013-03-20 07:24:00,43.2,42.6,30.16,North,0,2.7,-999.0,98,-99.99,,,0.00,Acu-Link.com,2013-03-20 12:24:00,
2013-03-20 07:39:00,43.2,42.4,30.17,NNE,22,2.2,-999.0,97,-99.99,,,0.00,Acu-Link.com,2013-03-20 12:39:00,
2013-03-20 07:54:00,43.3,42.0,30.17,NE,45,2.2,-999.0,95,-99.99,,,0.00,Acu-Link.com,2013-03-20 12:54:00,
2013-03-20 08:09:00,43.5,42.5,30.18,NNE,22,2.7,-999.0,96,-99.99,,,0.00,Acu-Link.com,2013-03-20 13:09:00,
2013-03-20 08:25:00,44.4,42.5,30.18,NNE,22,3.8,-999.0,93,-99.99,,,0.00,Acu-Link.com,2013-03-20 13:25:00,
2013-03-20 08:40:00,45.7,42.6,30.19,NNE,22,3.8,-999.0,89,-99.99,,,0.00,Acu-Link.com,2013-03-20 13:40:00,
2013-03-20 08:55:00,47.8,43.2,30.20,North,0,4.7,-999.0,84,-99.99,,,0.00,Acu-Link.com,2013-03-20 13:55:00,
2013-03-20 09:10:00,49.8,43.6,30.20,NE,45,4.7,-999.0,79,-99.99,,,0.00,Acu-Link.com,2013-03-20 14:10:00,
2013-03-20 09:25:00,51.6,44.0,30.20,NNE,22,7.8,-999.0,75,-99.99,,,0.00,Acu-Link.com,2013-03-20 14:25:00,
2013-03-20 09:56:00,54.1,44.6,30.20,North,0,5.1,-999.0,70,-99.99,,,0.00,Acu-Link.com,2013-03-20 14:56:00,
2013-03-20 10:11:00,55.4,45.0,30.21,NNE,22,4.7,-999.0,68,-99.99,,,0.00,Acu-Link.com,2013-03-20 15:11:00,
2013-03-20 10:26:00,55.4,43.8,30.21,NE,45,8.3,-999.0,65,-99.99,,,0.00,Acu-Link.com,2013-03-20 15:26:00,
2013-03-20 10:42:00,57.4,44.0,30.22,NNW,337,9.4,-999.0,61,-99.99,,,0.00,Acu-Link.com,2013-03-20 15:42:00,
2013-03-20 10:57:00,59.0,43.3,30.22,ENE,67,5.8,-999.0,56,-99.99,,,0.00,Acu-Link.com,2013-03-20 15:57:00,
2013-03-20 11:12:00,59.5,43.8,30.22,NE,45,7.4,-999.0,56,-99.99,,,0.00,Acu-Link.com,2013-03-20 16:12:00,
2013-03-20 11:27:00,61.0,44.7,30.22,ENE,67,6.7,-999.0,55,-99.99,,,0.00,Acu-Link.com,2013-03-20 16:27:00,
2013-03-20 11:42:00,61.5,43.7,30.22,ESE,112,7.4,-999.0,52,-99.99,,,0.00,Acu-Link.com,2013-03-20 16:42:00,
2013-03-20 11:58:00,62.4,43.0,30.22,West,270,4.3,-999.0,49,-99.99,,,0.00,Acu-Link.com,2013-03-20 16:58:00,
2013-03-20 12:13:00,63.3,43.3,30.22,ENE,67,10.3,-999.0,48,-99.99,,,0.00,Acu-Link.com,2013-03-20 17:13:00,
2013-03-20 12:28:00,64.2,43.6,30.21,East,90,8.3,-999.0,47,-99.99,,,0.00,Acu-Link.com,2013-03-20 17:28:00,
2013-03-20 12:43:00,64.9,43.1,30.20,NE,45,8.9,-999.0,45,-99.99,,,0.00,Acu-Link.com,2013-03-20 17:43:00,
2013-03-20 12:58:00,65.3,42.2,30.19,NE,45,8.3,-999.0,43,-99.99,,,0.00,Acu-Link.com,2013-03-20 17:58:00,
2013-03-20 13:14:00,66.4,42.6,30.18,North,0,6.3,-999.0,42,-99.99,,,0.00,Acu-Link.com,2013-03-20 18:14:00,
2013-03-20 13:29:00,66.7,42.3,30.17,East,90,2.2,-999.0,41,-99.99,,,0.00,Acu-Link.com,2013-03-20 18:29:00,
2013-03-20 13:44:00,68.4,42.4,30.16,NE,45,6.7,-999.0,39,-99.99,,,0.00,Acu-Link.com,2013-03-20 18:44:00,
2013-03-20 13:59:00,69.3,41.9,30.15,NE,45,9.4,-999.0,37,-99.99,,,0.00,Acu-Link.com,2013-03-20 18:59:00,
2013-03-20 14:14:00,69.6,41.5,30.14,ENE,67,3.8,-999.0,36,-99.99,,,0.00,Acu-Link.com,2013-03-20 19:14:00,
2013-03-20 14:30:00,68.9,38.6,30.13,SSE,157,1.6,-999.0,33,-99.99,,,0.00,Acu-Link.com,2013-03-20 19:30:00,
2013-03-20 14:45:00,71.1,38.9,30.12,WNW,292,2.2,-999.0,31,-99.99,,,0.00,Acu-Link.com,2013-03-20 19:45:00,
2013-03-20 15:00:00,70.2,37.3,30.12,NE,45,8.3,-999.0,30,-99.99,,,0.00,Acu-Link.com,2013-03-20 20:00:00,
2013-03-20 15:15:00,70.3,37.4,30.10,ESE,112,3.1,-999.0,30,-99.99,,,0.00,Acu-Link.com,2013-03-20 20:15:00,
2013-03-20 15:31:00,71.6,39.4,30.09,SSW,202,4.3,-999.0,31,-99.99,,,0.00,Acu-Link.com,2013-03-20 20:31:00,
2013-03-20 15:46:00,72.1,38.1,30.08,South,180,3.1,-999.0,29,-99.99,,,0.00,Acu-Link.com,2013-03-20 20:46:00,
2013-03-20 16:01:00,72.3,35.5,30.08,SSW,202,5.8,-999.0,26,-99.99,,,0.00,Acu-Link.com,2013-03-20 21:01:00,
2013-03-20 16:16:00,72.3,35.5,30.06,East,90,2.7,-999.0,26,-99.99,,,0.00,Acu-Link.com,2013-03-20 21:16:00,
2013-03-20 16:47:00,70.5,35.8,30.04,NE,45,8.3,-999.0,28,-99.99,,,0.00,Acu-Link.com,2013-03-20 21:47:00,
2013-03-20 17:02:00,70.2,35.5,30.04,ENE,67,2.7,-999.0,28,-99.99,,,0.00,Acu-Link.com,2013-03-20 22:02:00,
2013-03-20 17:17:00,70.0,37.1,30.02,SSW,202,2.7,-999.0,30,-99.99,,,0.00,Acu-Link.com,2013-03-20 22:17:00,
2013-03-20 17:32:00,69.6,37.6,30.03,NE,45,2.2,-999.0,31,-99.99,,,0.00,Acu-Link.com,2013-03-20 22:32:00,
2013-03-20 17:47:00,69.3,38.1,30.02,East,90,4.7,-999.0,32,-99.99,,,0.00,Acu-Link.com,2013-03-20 22:47:00,
2013-03-20 18:03:00,70.0,38.0,30.01,SSE,157,3.8,-999.0,31,-99.99,,,0.00,Acu-Link.com,2013-03-20 23:03:00,
2013-03-20 18:18:00,68.2,37.2,30.01,South,180,5.8,-999.0,32,-99.99,,,0.00,Acu-Link.com,2013-03-20 23:18:00,
2013-03-20 18:33:00,67.1,37.8,30.01,SE,135,2.2,-999.0,34,-99.99,,,0.00,Acu-Link.com,2013-03-20 23:33:00,
2013-03-20 18:48:00,66.4,38.6,30.02,SSE,157,1.6,-999.0,36,-99.99,,,0.00,Acu-Link.com,2013-03-20 23:48:00,
2013-03-20 19:03:00,66.6,39.5,30.00,SE,135,3.1,-999.0,37,-99.99,,,0.00,Acu-Link.com,2013-03-21 00:03:00,
2013-03-20 19:19:00,64.9,39.4,30.00,South,180,1.6,-999.0,39,-99.99,,,0.00,Acu-Link.com,2013-03-21 00:19:00,
2013-03-20 19:34:00,63.3,39.2,30.00,SSE,157,2.7,-999.0,41,-99.99,,,0.00,Acu-Link.com,2013-03-21 00:34:00,
2013-03-20 19:49:00,61.9,37.3,29.99,SSE,157,0.0,-999.0,40,-99.99,,,0.00,Acu-Link.com,2013-03-21 00:49:00,
2013-03-20 20:04:00,60.4,37.8,29.99,ESE,112,0.0,-999.0,43,-99.99,,,0.00,Acu-Link.com,2013-03-21 01:04:00,
2013-03-20 20:20:00,59.2,37.3,29.98,SSE,157,0.0,-999.0,44,-99.99,,,0.00,Acu-Link.com,2013-03-21 01:20:00,
2013-03-20 20:35:00,58.3,38.1,29.99,NE,45,0.0,-999.0,47,-99.99,,,0.00,Acu-Link.com,2013-03-21 01:35:00,
2013-03-20 20:50:00,57.7,37.6,29.98,SE,135,0.0,-999.0,47,-99.99,,,0.00,Acu-Link.com,2013-03-21 01:50:00,
2013-03-20 21:05:00,56.8,37.9,29.97,SE,135,1.1,-999.0,49,-99.99,,,0.00,Acu-Link.com,2013-03-21 02:05:00,
2013-03-20 21:20:00,56.1,38.2,29.98,East,90,1.1,-999.0,51,-99.99,,,0.00,Acu-Link.com,2013-03-21 02:20:00,
2013-03-20 21:36:00,55.4,38.1,29.98,ESE,112,0.0,-999.0,52,-99.99,,,0.00,Acu-Link.com,2013-03-21 02:36:00,
2013-03-20 22:06:00,54.5,39.1,29.97,ESE,112,2.7,-999.0,56,-99.99,,,0.00,Acu-Link.com,2013-03-21 03:06:00,
2013-03-20 22:21:00,54.9,39.9,29.97,NNE,22,0.0,-999.0,57,-99.99,,,0.00,Acu-Link.com,2013-03-21 03:21:00,
2013-03-20 22:36:00,54.9,39.5,29.97,ENE,67,1.6,-999.0,56,-99.99,,,0.00,Acu-Link.com,2013-03-21 03:36:00,
2013-03-20 22:52:00,54.5,38.7,29.96,ESE,112,4.3,-999.0,55,-99.99,,,0.00,Acu-Link.com,2013-03-21 03:52:00,
2013-03-20 23:07:00,55.0,39.6,29.96,ESE,112,2.2,-999.0,56,-99.99,,,0.00,Acu-Link.com,2013-03-21 04:07:00,
2013-03-20 23:22:00,54.1,39.2,29.96,SSW,202,0.0,-999.0,57,-99.99,,,0.00,Acu-Link.com,2013-03-21 04:22:00,
2013-03-20 23:37:00,53.6,39.6,29.96,WSW,247,0.0,-999.0,59,-99.99,,,0.00,Acu-Link.com,2013-03-21 04:37:00,
2013-03-20 23:52:00,53.1,39.1,29.95,SSE,157,0.0,-999.0,59,-99.99,,,0.00,Acu-Link.com,2013-03-21 04:52:00,